createdAt,value
2022-08-12T00:02:03.304Z,26.50
2022-08-12T00:04:52.745Z,26.47
2022-08-12T00:07:39.096Z,26.47
2022-08-12T00:10:25.398Z,26.43
2022-08-12T00:13:12.343Z,26.39
2022-08-12T00:16:00.405Z,26.35
2022-08-12T00:18:45.852Z,26.33
2022-08-12T00:21:36.092Z,26.33
2022-08-12T00:24:22.118Z,26.27
2022-08-12T00:27:07.926Z,26.27
2022-08-12T00:29:53.675Z,26.25
2022-08-12T00:32:39.866Z,26.24
2022-08-12T00:35:40.817Z,26.22
2022-08-12T00:38:27.498Z,26.17
2022-08-12T00:41:12.982Z,26.18
2022-08-12T00:43:44.734Z,26.18
2022-08-12T00:46:30.227Z,26.16
2022-08-12T00:48:58.552Z,26.15
2022-08-12T00:51:47.629Z,26.12
2022-08-12T00:54:16.858Z,26.10
2022-08-12T00:56:44.645Z,26.06
2022-08-12T00:59:12.937Z,26.06
2022-08-12T01:02:10.801Z,26.06
2022-08-12T01:04:52.326Z,26.03
2022-08-12T01:07:42.980Z,26.01
2022-08-12T01:10:32.608Z,26.00
2022-08-12T01:13:18.251Z,26.00
2022-08-12T01:15:49.361Z,25.97
2022-08-12T01:18:18.616Z,25.96
2022-08-12T01:20:54.703Z,25.94
2022-08-12T01:23:42.002Z,25.92
2022-08-12T01:26:17.497Z,25.91
2022-08-12T01:28:47.720Z,25.88
2022-08-12T01:31:19.969Z,25.87
2022-08-12T01:33:59.730Z,25.85
2022-08-12T01:36:29.265Z,25.83
2022-08-12T01:39:00.116Z,25.80
2022-08-12T01:41:31.961Z,25.77
2022-08-12T01:44:02.270Z,25.76
2022-08-12T01:46:43.248Z,25.73
2022-08-12T01:49:31.088Z,25.71
2022-08-12T01:52:20.827Z,25.66
2022-08-12T01:54:52.000Z,25.66
2022-08-12T01:57:59.822Z,25.63
2022-08-12T02:00:17.895Z,25.60
2022-08-12T02:02:51.330Z,25.57
2022-08-12T02:05:49.440Z,25.56
2022-08-12T02:08:52.321Z,25.54
2022-08-12T02:11:25.658Z,25.52
2022-08-12T02:14:21.488Z,25.49
2022-08-12T02:17:05.281Z,25.47
2022-08-12T02:19:54.632Z,25.44
2022-08-12T02:22:28.660Z,25.43
2022-08-12T02:25:02.524Z,25.41
2022-08-12T02:27:36.023Z,25.38
2022-08-12T02:30:08.890Z,25.37
2022-08-12T02:32:40.441Z,25.35
2022-08-12T02:35:11.841Z,25.36
2022-08-12T02:37:41.058Z,25.35
2022-08-12T02:40:12.282Z,25.33
2022-08-12T02:42:47.465Z,25.32
2022-08-12T02:45:21.452Z,25.29
2022-08-12T02:48:00.279Z,25.29
2022-08-12T02:50:32.500Z,25.26
2022-08-12T02:53:00.969Z,25.24
2022-08-12T02:55:34.975Z,25.23
2022-08-12T02:58:06.860Z,25.21
2022-08-12T03:00:39.605Z,25.19
2022-08-12T03:03:11.122Z,25.18
2022-08-12T03:05:46.080Z,25.16
2022-08-12T03:08:32.819Z,25.14
2022-08-12T03:11:03.252Z,25.13
2022-08-12T03:13:36.156Z,25.11
2022-08-12T03:16:05.931Z,25.10
2022-08-12T03:18:35.046Z,25.07
2022-08-12T03:21:03.331Z,25.06
2022-08-12T03:23:31.825Z,25.04
2022-08-12T03:26:01.679Z,25.02
2022-08-12T03:28:48.915Z,25.00
2022-08-12T03:31:19.593Z,24.96
2022-08-12T03:34:00.915Z,24.92
2022-08-12T03:36:35.257Z,24.89
2022-08-12T03:39:36.281Z,24.87
2022-08-12T03:42:17.465Z,24.84
2022-08-12T03:45:14.385Z,24.81
2022-08-12T03:48:05.850Z,24.79
2022-08-12T03:50:51.274Z,24.75
2022-08-12T03:53:43.947Z,24.73
2022-08-12T03:56:29.304Z,24.71
2022-08-12T03:59:17.674Z,24.67
2022-08-12T04:01:52.490Z,24.58
2022-08-12T04:04:23.555Z,24.62
2022-08-12T04:06:51.536Z,24.61
2022-08-12T04:09:22.119Z,24.59
2022-08-12T04:12:08.045Z,24.56
2022-08-12T04:14:37.715Z,24.55
2022-08-12T04:17:05.776Z,24.52
2022-08-12T04:19:34.846Z,24.51
2022-08-12T04:22:03.727Z,24.50
2022-08-12T04:24:34.926Z,24.48
2022-08-12T04:27:05.482Z,24.47
2022-08-12T04:30:30.649Z,24.46
2022-08-12T04:32:22.198Z,24.37
2022-08-12T04:34:51.608Z,24.45
2022-08-12T04:37:19.266Z,24.41
2022-08-12T04:39:47.682Z,24.41
2022-08-12T04:42:16.064Z,24.39
2022-08-12T04:44:44.423Z,24.39
2022-08-12T04:47:14.189Z,24.37
2022-08-12T04:49:44.281Z,24.35
2022-08-12T04:52:13.888Z,24.32
2022-08-12T04:54:43.888Z,24.32
2022-08-12T04:57:11.776Z,24.31
2022-08-12T04:59:46.829Z,24.30
2022-08-12T05:02:20.318Z,24.29
2022-08-12T05:04:50.345Z,24.27
2022-08-12T05:07:19.452Z,24.26
2022-08-12T05:10:00.248Z,24.23
2022-08-12T05:12:34.174Z,24.22
2022-08-12T05:15:02.095Z,24.20
2022-08-12T05:17:29.868Z,24.17
2022-08-12T05:19:58.153Z,24.16
2022-08-12T05:22:28.220Z,24.11
2022-08-12T05:24:55.902Z,24.13
2022-08-12T05:27:23.620Z,24.11
2022-08-12T05:30:07.972Z,24.09
2022-08-12T05:32:37.665Z,24.07
2022-08-12T05:35:08.205Z,24.04
2022-08-12T05:37:37.293Z,24.06
2022-08-12T05:40:11.015Z,24.02
2022-08-12T05:42:39.314Z,24.02
2022-08-12T05:45:08.316Z,24.02
2022-08-12T05:47:52.261Z,24.01
2022-08-12T05:50:21.220Z,24.01
2022-08-12T05:52:50.262Z,24.00
2022-08-12T05:55:20.750Z,24.01
2022-08-12T05:57:55.257Z,24.00
2022-08-12T06:00:25.852Z,24.01
2022-08-12T06:02:57.090Z,24.00
2022-08-12T06:05:24.850Z,24.01
2022-08-12T06:08:02.159Z,23.96
2022-08-12T06:10:32.901Z,24.03
2022-08-12T06:13:02.484Z,24.07
2022-08-12T06:15:30.899Z,24.11
2022-08-12T06:18:11.517Z,24.13
2022-08-12T06:20:43.357Z,24.16
2022-08-12T06:23:12.755Z,24.20
2022-08-12T06:25:40.618Z,24.21
2022-08-12T06:28:17.529Z,24.25
2022-08-12T06:31:02.668Z,24.27
2022-08-12T06:33:55.604Z,24.30
2022-08-12T06:36:29.328Z,24.31
2022-08-12T06:38:59.268Z,24.34
2022-08-12T06:42:02.573Z,24.36
2022-08-12T06:44:32.709Z,24.37
2022-08-12T06:47:00.605Z,24.30
2022-08-12T06:49:33.545Z,24.40
2022-08-12T06:52:01.222Z,24.42
2022-08-12T06:54:32.306Z,24.44
2022-08-12T06:57:57.206Z,24.45
2022-08-12T06:59:48.572Z,24.48
2022-08-12T07:02:16.374Z,24.50
2022-08-12T07:04:45.491Z,24.52
2022-08-12T07:07:13.157Z,24.55
2022-08-12T07:10:01.193Z,24.58
2022-08-12T07:12:32.166Z,24.61
2022-08-12T07:15:02.074Z,24.64
2022-08-12T07:17:37.546Z,24.65
2022-08-12T07:20:08.233Z,24.68
2022-08-12T07:22:36.107Z,24.70
2022-08-12T07:25:23.382Z,24.72
2022-08-12T07:27:54.303Z,24.72
2022-08-12T07:30:23.035Z,24.72
2022-08-12T07:32:51.510Z,24.72
2022-08-12T07:35:20.267Z,24.72
2022-08-12T07:37:50.463Z,24.70
2022-08-12T07:40:20.873Z,24.69
2022-08-12T07:42:48.654Z,24.67
2022-08-12T07:45:16.544Z,24.66
2022-08-12T07:47:44.869Z,24.68
2022-08-12T07:50:13.057Z,24.67
2022-08-12T07:52:44.027Z,24.65
2022-08-12T07:55:12.594Z,24.65
2022-08-12T07:57:53.350Z,24.66
2022-08-12T08:00:21.364Z,24.66
2022-08-12T08:02:49.455Z,24.66
2022-08-12T08:05:19.483Z,24.64
2022-08-12T08:07:47.923Z,24.66
2022-08-12T08:10:16.642Z,24.72
2022-08-12T08:12:58.068Z,24.71
2022-08-12T08:15:58.864Z,24.71
2022-08-12T08:18:25.701Z,24.71
2022-08-12T08:20:55.980Z,24.73
2022-08-12T08:23:43.674Z,24.73
2022-08-12T08:26:16.457Z,24.74
2022-08-12T08:28:44.302Z,24.76
2022-08-12T08:31:14.981Z,24.77
2022-08-12T08:34:09.652Z,24.78
2022-08-12T08:36:30.736Z,24.80
2022-08-12T08:38:58.864Z,24.82
2022-08-12T08:42:16.661Z,24.83
2022-08-12T08:44:32.297Z,24.85
2022-08-12T08:47:03.512Z,24.87
2022-08-12T08:49:31.285Z,24.88
2022-08-12T08:51:59.058Z,24.89
2022-08-12T08:54:26.747Z,24.92
2022-08-12T08:56:54.476Z,24.95
2022-08-12T08:59:22.359Z,24.97
2022-08-12T09:01:50.239Z,25.00
2022-08-12T09:05:12.014Z,25.03
2022-08-12T09:07:16.589Z,25.05
2022-08-12T09:12:55.226Z,25.15
2022-08-12T09:15:35.558Z,25.20
2022-08-12T09:18:05.884Z,25.20
2022-08-12T09:20:39.295Z,25.24
2022-08-12T09:23:59.372Z,25.24
2022-08-12T09:26:04.325Z,25.27
2022-08-12T09:28:53.189Z,25.29
2022-08-12T09:32:07.889Z,25.31
2022-08-12T09:34:28.172Z,25.36
2022-08-12T09:37:18.531Z,25.41
2022-08-12T09:40:00.948Z,25.46
2022-08-12T09:43:11.018Z,25.51
2022-08-12T09:46:19.494Z,25.55
2022-08-12T09:48:35.164Z,25.57
2022-08-12T09:51:16.569Z,25.62
2022-08-12T09:54:09.202Z,25.67
2022-08-12T09:57:01.799Z,25.72
2022-08-12T10:00:17.722Z,25.79
2022-08-12T10:02:53.071Z,25.81
2022-08-12T10:05:04.319Z,25.83
2022-08-12T10:07:39.391Z,25.86
2022-08-12T10:10:24.549Z,25.89
2022-08-12T10:13:13.461Z,25.96
2022-08-12T10:16:02.896Z,26.03
2022-08-12T10:18:35.305Z,26.10
2022-08-12T10:21:07.335Z,26.16
2022-08-12T10:23:39.791Z,26.22
2022-08-12T10:26:36.857Z,26.25
2022-08-12T10:30:02.860Z,26.33
2022-08-12T10:32:21.294Z,26.37
2022-08-12T10:34:53.588Z,26.44
2022-08-12T10:38:34.846Z,26.47
2022-08-12T10:40:19.146Z,26.52
2022-08-12T10:43:06.839Z,26.56
2022-08-12T10:45:38.489Z,26.61
2022-08-12T10:48:21.948Z,26.65
2022-08-12T10:51:01.603Z,26.70
2022-08-12T10:53:44.936Z,26.74
2022-08-12T10:56:15.437Z,26.79
2022-08-12T10:58:47.153Z,26.83
2022-08-12T11:01:49.911Z,26.85
2022-08-12T11:04:24.439Z,26.83
2022-08-12T11:07:08.364Z,26.83
2022-08-12T11:09:59.983Z,26.91
2022-08-12T11:12:54.891Z,26.99
2022-08-12T11:15:32.994Z,27.09
2022-08-12T11:18:12.114Z,27.17
2022-08-12T11:20:47.540Z,27.23
2022-08-12T11:23:24.954Z,27.29
2022-08-12T11:26:06.247Z,27.34
2022-08-12T11:28:37.510Z,27.36
2022-08-12T11:31:12.272Z,27.37
2022-08-12T11:34:05.092Z,27.39
2022-08-12T11:36:31.185Z,27.39
2022-08-12T11:39:04.353Z,27.40
2022-08-12T11:41:32.903Z,27.40
2022-08-12T11:44:29.173Z,27.41
2022-08-12T11:46:50.895Z,27.43
2022-08-12T11:49:26.786Z,27.51
2022-08-12T11:52:01.142Z,27.53
2022-08-12T11:54:29.678Z,27.67
2022-08-12T11:57:00.180Z,27.72
2022-08-12T12:01:58.147Z,27.78
2022-08-12T12:02:20.417Z,27.87
2022-08-12T12:04:52.820Z,27.93
2022-08-12T12:08:36.135Z,27.96
2022-08-12T12:10:12.352Z,28.00
2022-08-12T12:12:41.489Z,28.04
2022-08-12T12:15:25.280Z,28.11
2022-08-12T12:18:06.420Z,28.14
2022-08-12T12:20:36.263Z,28.18
2022-08-12T12:23:04.066Z,28.24
2022-08-12T12:25:59.596Z,28.33
2022-08-12T12:28:36.947Z,28.45
2022-08-12T12:31:15.170Z,28.56
2022-08-12T12:33:58.076Z,28.57
2022-08-12T12:36:29.322Z,28.52
2022-08-12T12:38:58.082Z,28.49
2022-08-12T12:42:52.146Z,28.53
2022-08-12T12:44:25.786Z,28.55
2022-08-12T12:46:58.154Z,28.59
2022-08-12T12:49:27.609Z,28.63
2022-08-12T12:52:19.099Z,28.71
2022-08-12T12:54:53.107Z,28.82
2022-08-12T12:57:21.596Z,28.92
2022-08-12T13:00:15.674Z,28.92
2022-08-12T13:02:50.834Z,28.95
2022-08-12T13:05:27.919Z,28.97
2022-08-12T13:08:01.121Z,28.95
2022-08-12T13:10:36.490Z,28.91
2022-08-12T13:14:08.019Z,28.87
2022-08-12T13:15:53.895Z,28.93
2022-08-12T13:18:28.830Z,28.98
2022-08-12T13:20:59.607Z,29.00
2022-08-12T13:23:36.943Z,29.04
2022-08-12T13:26:05.654Z,29.08
2022-08-12T13:28:35.057Z,29.09
2022-08-12T13:31:12.934Z,29.09
2022-08-12T13:34:28.521Z,29.06
2022-08-12T13:36:31.991Z,29.08
2022-08-12T13:38:59.666Z,29.10
2022-08-12T13:41:36.665Z,29.12
2022-08-12T13:44:06.505Z,29.17
2022-08-12T13:46:40.768Z,29.19
2022-08-12T13:49:20.451Z,29.24
2022-08-12T13:52:02.662Z,29.28
2022-08-12T13:54:31.206Z,29.30
2022-08-12T13:56:58.871Z,29.33
2022-08-12T13:59:28.378Z,29.39
2022-08-12T14:01:57.478Z,29.43
2022-08-12T14:04:25.216Z,29.46
2022-08-12T14:06:55.244Z,29.51
2022-08-12T14:09:29.523Z,29.52
2022-08-12T14:11:58.730Z,29.50
2022-08-12T14:14:31.474Z,29.49
2022-08-12T14:17:05.722Z,29.51
2022-08-12T14:19:48.680Z,29.53
2022-08-12T14:22:21.410Z,29.55
2022-08-12T14:24:58.268Z,29.58
2022-08-12T14:28:03.791Z,29.61
2022-08-12T14:30:28.944Z,29.66
2022-08-12T14:32:57.639Z,29.69
2022-08-12T14:35:25.382Z,29.72
2022-08-12T14:37:58.150Z,29.74
2022-08-12T14:40:29.365Z,29.74
2022-08-12T14:42:59.127Z,29.73
2022-08-12T14:45:45.524Z,29.79
2022-08-12T14:48:18.497Z,29.76
2022-08-12T14:51:02.667Z,29.76
2022-08-12T14:59:56.310Z,29.83
2022-08-12T15:02:21.074Z,29.89
2022-08-12T15:04:58.690Z,29.91
2022-08-12T15:07:34.433Z,29.90
2022-08-12T15:10:14.848Z,29.91
2022-08-12T15:12:54.629Z,29.94
2022-08-12T15:15:22.789Z,29.97
2022-08-12T15:17:59.377Z,29.99
2022-08-12T15:20:33.170Z,30.01
2022-08-12T15:23:05.731Z,30.03
2022-08-12T15:25:47.745Z,30.01
2022-08-12T15:28:22.475Z,30.01
2022-08-12T15:30:53.170Z,30.01
2022-08-12T15:33:24.332Z,30.03
2022-08-12T15:35:54.007Z,30.03
2022-08-12T15:38:25.314Z,30.06
2022-08-12T15:40:55.242Z,30.09
2022-08-12T15:43:35.588Z,30.08
2022-08-12T15:46:15.236Z,30.04
2022-08-12T15:48:46.446Z,30.03
2022-08-12T15:51:59.596Z,30.00
2022-08-12T15:54:30.916Z,30.02
2022-08-12T15:57:03.480Z,30.04
2022-08-12T15:59:52.061Z,30.07
2022-08-12T16:02:20.566Z,30.08
2022-08-12T16:04:51.201Z,30.07
2022-08-12T16:07:29.827Z,30.08
2022-08-12T16:10:10.155Z,30.05
2022-08-12T16:12:43.288Z,30.05
2022-08-12T16:15:13.858Z,30.06
2022-08-12T16:18:18.522Z,30.08
2022-08-12T16:20:34.301Z,30.07
2022-08-12T16:23:14.915Z,30.06
2022-08-12T16:26:05.370Z,30.02
2022-08-12T16:28:34.977Z,29.99
2022-08-12T16:31:05.626Z,29.97
2022-08-12T16:34:00.012Z,29.94
2022-08-12T16:36:25.374Z,29.93
2022-08-12T16:38:53.144Z,29.92
2022-08-12T16:41:21.006Z,29.90
2022-08-12T16:43:48.687Z,29.91
2022-08-12T16:46:32.419Z,29.89
2022-08-12T16:49:09.098Z,29.86
2022-08-12T16:51:46.434Z,29.86
2022-08-12T16:54:17.106Z,29.86
2022-08-12T16:56:55.489Z,29.84
2022-08-12T16:59:53.006Z,29.82
2022-08-12T17:02:18.113Z,29.79
2022-08-12T17:05:03.746Z,29.77
2022-08-12T17:07:36.820Z,29.76
2022-08-12T17:10:06.799Z,29.75
2022-08-12T17:12:37.546Z,29.73
2022-08-12T17:15:50.413Z,29.66
2022-08-12T17:18:38.843Z,29.70
2022-08-12T17:20:47.732Z,29.73
2022-08-12T17:23:17.060Z,29.75
2022-08-12T17:25:48.330Z,29.76
2022-08-12T17:28:17.240Z,29.77
2022-08-12T17:30:45.991Z,29.76
2022-08-12T17:33:26.716Z,29.75
2022-08-12T17:35:58.450Z,29.74
2022-08-12T17:38:26.811Z,29.74
2022-08-12T17:40:55.436Z,29.74
2022-08-12T17:43:55.882Z,29.74
2022-08-12T17:46:12.879Z,29.72
2022-08-12T17:48:55.330Z,29.69
2022-08-12T17:51:24.632Z,29.69
2022-08-12T17:54:10.362Z,29.68
2022-08-12T17:56:39.946Z,29.67
2022-08-12T17:59:12.544Z,29.65
2022-08-12T18:01:44.451Z,29.64
2022-08-12T18:04:21.962Z,29.60
2022-08-12T18:06:51.950Z,29.61
2022-08-12T18:09:21.166Z,29.53
2022-08-12T18:12:08.725Z,29.59
2022-08-12T18:14:36.992Z,29.55
2022-08-12T18:17:08.454Z,29.55
2022-08-12T18:20:05.873Z,29.54
2022-08-12T18:22:31.699Z,29.50
2022-08-12T18:25:03.728Z,29.50
2022-08-12T18:27:43.901Z,29.48
2022-08-12T18:30:20.317Z,29.46
2022-08-12T18:33:03.906Z,29.42
2022-08-12T18:35:47.366Z,29.41
2022-08-12T18:38:22.161Z,29.39
2022-08-12T18:41:09.842Z,29.38
2022-08-12T18:43:58.727Z,29.37
2022-08-12T18:46:47.179Z,29.36
2022-08-12T18:49:19.268Z,29.34
2022-08-12T18:51:55.133Z,29.33
2022-08-12T18:54:32.269Z,29.31
2022-08-12T18:57:03.880Z,29.29
2022-08-12T19:00:01.360Z,29.27
2022-08-12T19:02:23.080Z,29.27
2022-08-12T19:04:53.541Z,29.25
2022-08-12T19:07:24.576Z,29.23
2022-08-12T19:09:59.092Z,29.21
2022-08-12T19:12:57.488Z,29.19
2022-08-12T19:15:27.180Z,29.18
2022-08-12T19:18:02.536Z,29.15
2022-08-12T19:20:31.691Z,29.13
2022-08-12T19:23:07.248Z,29.12
2022-08-12T19:26:02.053Z,29.09
2022-08-12T19:28:34.352Z,29.07
2022-08-12T19:31:57.241Z,29.05
2022-08-12T19:37:17.107Z,29.00
2022-08-12T19:40:09.841Z,28.99
2022-08-12T19:42:36.177Z,28.96
2022-08-12T19:45:12.278Z,28.94
2022-08-12T19:47:41.024Z,28.92
2022-08-12T19:50:11.363Z,28.89
2022-08-12T19:52:40.944Z,28.88
2022-08-12T19:55:19.897Z,28.85
2022-08-12T19:58:02.851Z,28.83
2022-08-12T20:00:34.443Z,28.81
2022-08-12T20:03:04.629Z,28.79
2022-08-12T20:06:04.820Z,28.75
2022-08-12T20:08:34.109Z,28.74
2022-08-12T20:12:09.107Z,28.71
2022-08-12T20:14:01.237Z,28.70
2022-08-12T20:16:52.580Z,28.67
2022-08-12T20:19:17.477Z,28.66
2022-08-12T20:21:45.652Z,28.64
2022-08-12T20:24:14.801Z,28.64
2022-08-12T20:26:44.295Z,28.64
2022-08-12T20:29:14.659Z,28.60
2022-08-12T20:31:44.409Z,28.59
2022-08-12T20:34:12.696Z,28.61
2022-08-12T20:36:44.604Z,28.61
2022-08-12T20:39:37.169Z,28.58
2022-08-12T20:42:07.904Z,28.57
2022-08-12T20:44:39.703Z,28.55
2022-08-12T20:47:17.868Z,28.53
2022-08-12T20:49:55.700Z,28.52
2022-08-12T20:52:29.797Z,28.49
2022-08-12T20:55:15.683Z,28.47
2022-08-12T20:58:01.849Z,28.46
2022-08-12T21:00:31.029Z,28.44
2022-08-12T21:03:19.665Z,28.43
2022-08-12T21:06:13.602Z,28.41
2022-08-12T21:08:41.881Z,28.39
2022-08-12T21:11:10.358Z,28.37
2022-08-12T21:13:41.908Z,28.35
2022-08-12T21:16:10.459Z,28.33
2022-08-12T21:18:38.541Z,28.31
2022-08-12T21:21:06.845Z,28.30
2022-08-12T21:23:52.262Z,28.27
2022-08-12T21:26:24.425Z,28.26
2022-08-12T21:29:01.260Z,28.23
2022-08-12T21:32:39.259Z,28.22
2022-08-12T21:34:22.095Z,28.19
2022-08-12T21:36:54.068Z,28.16
2022-08-12T21:39:27.875Z,28.14
2022-08-12T21:42:06.587Z,28.11
2022-08-12T21:45:46.510Z,28.08
2022-08-12T21:47:25.507Z,28.06
2022-08-12T21:50:03.729Z,28.04
2022-08-12T21:52:36.222Z,27.96
2022-08-12T21:55:08.275Z,27.98
2022-08-12T21:57:54.045Z,27.95
2022-08-12T22:00:33.160Z,27.92
2022-08-12T22:03:25.106Z,27.85
2022-08-12T22:06:31.686Z,27.85
2022-08-12T22:09:16.247Z,27.81
2022-08-12T22:11:56.052Z,27.80
2022-08-12T22:14:25.153Z,27.75
2022-08-12T22:16:56.052Z,27.74
2022-08-12T22:19:24.239Z,27.70
2022-08-12T22:21:54.693Z,27.70
2022-08-12T22:24:26.584Z,27.69
2022-08-12T22:26:57.740Z,27.65
2022-08-12T22:29:48.643Z,27.65
2022-08-12T22:32:19.117Z,27.61
2022-08-12T22:35:08.163Z,27.59
2022-08-12T22:37:38.923Z,27.59
2022-08-12T22:40:07.769Z,27.57
2022-08-12T22:42:53.765Z,27.54
2022-08-12T22:45:48.379Z,27.55
2022-08-12T22:48:26.541Z,27.52
2022-08-12T22:50:59.299Z,27.52
2022-08-12T22:53:35.912Z,27.49
2022-08-12T22:56:07.034Z,27.48
2022-08-12T22:58:36.607Z,27.47
2022-08-12T23:01:10.887Z,27.43
2022-08-12T23:03:48.558Z,27.42
2022-08-12T23:06:19.925Z,27.41
2022-08-12T23:08:48.255Z,27.36
2022-08-12T23:11:17.184Z,27.37
2022-08-12T23:13:54.812Z,27.35
2022-08-12T23:16:29.023Z,27.34
2022-08-12T23:19:10.980Z,27.31
2022-08-12T23:22:05.988Z,27.28
2022-08-12T23:24:55.541Z,27.26
2022-08-12T23:27:50.354Z,27.22
2022-08-12T23:30:24.969Z,27.20
2022-08-12T23:32:54.604Z,27.18
2022-08-12T23:35:53.917Z,27.17
2022-08-12T23:38:30.404Z,27.14
2022-08-12T23:40:59.573Z,27.12
2022-08-12T23:43:39.025Z,27.09
2022-08-12T23:46:09.098Z,27.06
2022-08-12T23:48:37.691Z,27.04
2022-08-12T23:51:21.696Z,27.02
2022-08-12T23:53:54.667Z,26.99
2022-08-12T23:56:24.607Z,26.96
2022-08-12T23:58:55.009Z,26.94
